Time;durP1;ratioP1;P1;durP2;ratioP2;P2;SDS_P1;SDS_P2;PMS_P1;PMS_P2;Temp;Humidity;BMP_temperature;BMP_pressure;BME280_temperature;BME280_humidity;BME280_pressure;Samples;Min_cycle;Max_cycle;Signal;HPM_P1;HPM_P2
2021/06/28 00:01:12;;;;;;;11.37;7.50;;;21.00;99.90;;;;;;5003936;28;20216;-71
2021/06/28 00:03:38;;;;;;;7.13;6.27;;;20.90;99.90;;;;;;5021151;28;20485;-73
2021/06/28 00:06:05;;;;;;;9.30;6.73;;;20.90;99.90;;;;;;5009282;28;20431;-73
2021/06/28 00:08:30;;;;;;;9.03;6.93;;;20.80;99.90;;;;;;5020351;28;20430;-72
2021/06/28 00:10:56;;;;;;;8.77;6.77;;;20.80;99.90;;;;;;5014076;28;20417;-72
2021/06/28 00:13:23;;;;;;;8.70;6.67;;;20.70;99.90;;;;;;5004768;28;20675;-72
2021/06/28 00:15:49;;;;;;;5.90;5.40;;;20.70;99.90;;;;;;5017541;28;20279;-71
2021/06/28 00:18:16;;;;;;;5.77;5.27;;;20.60;99.90;;;;;;5023562;28;20428;-71
2021/06/28 00:20:43;;;;;;;6.57;5.93;;;20.50;99.90;;;;;;5028082;28;20439;-72
2021/06/28 00:23:09;;;;;;;7.00;6.30;;;20.40;99.90;;;;;;5009955;28;20489;-72
2021/06/28 00:25:36;;;;;;;7.67;6.97;;;20.40;99.90;;;;;;5012304;28;20437;-72
2021/06/28 00:28:02;;;;;;;7.50;6.80;;;20.40;99.90;;;;;;5017059;28;20509;-73
2021/06/28 00:30:30;;;;;;;9.40;6.70;;;20.30;99.90;;;;;;5016232;28;20422;-73
2021/06/28 00:32:56;;;;;;;7.70;7.00;;;20.40;99.90;;;;;;5019911;28;20454;-72
2021/06/28 00:35:22;;;;;;;8.60;7.03;;;20.30;99.90;;;;;;5013884;28;20957;-72
2021/06/28 00:37:49;;;;;;;8.43;7.17;;;20.20;99.90;;;;;;5009163;28;20278;-74
2021/06/28 00:40:17;;;;;;;7.30;6.47;;;20.10;99.90;;;;;;5009563;28;20513;-71
2021/06/28 00:42:43;;;;;;;7.17;6.47;;;20.10;99.90;;;;;;5023893;28;20484;-72
2021/06/28 00:45:15;;;;;;;7.73;6.70;;;20.10;99.90;;;;;;5011159;28;20457;-72
2021/06/28 00:47:41;;;;;;;9.50;6.47;;;20.10;99.90;;;;;;5018952;28;20183;-72
2021/06/28 00:50:07;;;;;;;7.77;6.77;;;20.10;99.90;;;;;;5015320;28;20517;-72
2021/06/28 00:52:33;;;;;;;8.77;7.43;;;20.00;99.90;;;;;;5014725;28;20199;-72
2021/06/28 00:54:58;;;;;;;8.33;6.80;;;20.00;99.90;;;;;;5020515;28;20488;-73
2021/06/28 00:57:25;;;;;;;8.50;6.53;;;20.00;99.90;;;;;;5010443;28;20196;-72
2021/06/28 00:59:51;;;;;;;8.47;7.57;;;20.00;99.90;;;;;;5018623;28;20287;-73
2021/06/28 01:02:16;;;;;;;7.93;7.13;;;20.00;99.90;;;;;;5021280;28;20546;-73
2021/06/28 01:04:42;;;;;;;8.73;7.50;;;20.00;99.90;;;;;;5010132;28;20189;-73
2021/06/28 01:07:08;;;;;;;7.53;6.70;;;20.00;99.90;;;;;;5015747;28;20183;-73
2021/06/28 01:09:33;;;;;;;7.70;6.77;;;20.00;99.90;;;;;;5017871;28;20509;-73
2021/06/28 01:11:59;;;;;;;7.93;7.13;;;20.00;99.90;;;;;;5017647;28;20217;-73
2021/06/28 01:14:25;;;;;;;7.60;6.90;;;19.90;99.90;;;;;;5019281;28;20209;-73
2021/06/28 01:16:51;;;;;;;7.90;7.20;;;19.90;99.90;;;;;;5015908;28;20196;-72
2021/06/28 01:19:25;;;;;;;9.13;8.03;;;19.90;99.90;;;;;;5009070;28;20200;-72
2021/06/28 01:21:52;;;;;;;9.67;8.20;;;19.90;99.90;;;;;;5012506;28;20574;-73
2021/06/28 01:24:18;;;;;;;7.67;6.97;;;20.00;99.90;;;;;;5012038;28;20457;-73
2021/06/28 01:26:44;;;;;;;9.00;8.30;;;20.00;99.90;;;;;;5021184;28;20434;-72
2021/06/28 01:29:09;;;;;;;10.13;8.43;;;19.90;99.90;;;;;;5016483;28;20558;-74
2021/06/28 01:31:35;;;;;;;7.00;6.50;;;19.90;99.90;;;;;;5013954;28;20440;-73
2021/06/28 01:34:00;;;;;;;7.77;7.00;;;19.90;99.90;;;;;;5011609;28;20211;-72
2021/06/28 01:36:26;;;;;;;7.40;6.37;;;19.90;99.90;;;;;;5003050;28;20186;-72
2021/06/28 01:38:53;;;;;;;7.37;6.60;;;20.00;99.90;;;;;;5004766;28;20191;-72
2021/06/28 01:41:18;;;;;;;7.30;6.60;;;20.10;99.90;;;;;;5015478;28;20196;-72
2021/06/28 01:43:45;;;;;;;8.63;7.00;;;20.20;99.90;;;;;;5012200;28;20864;-73
2021/06/28 01:46:10;;;;;;;7.60;6.77;;;20.20;99.90;;;;;;5013732;28;20699;-72
2021/06/28 01:48:37;;;;;;;7.50;6.90;;;20.30;99.90;;;;;;5015062;28;20435;-73
2021/06/28 01:51:04;;;;;;;7.60;6.90;;;20.40;99.90;;;;;;5015017;28;20187;-72
2021/06/28 01:53:30;;;;;;;7.47;6.60;;;20.40;99.90;;;;;;5020750;28;20545;-73
2021/06/28 01:55:56;;;;;;;6.60;6.00;;;20.50;99.90;;;;;;5019748;28;20979;-73
2021/06/28 01:58:21;;;;;;;8.33;7.53;;;20.50;99.90;;;;;;5021747;28;20462;-71
2021/06/28 02:00:50;;;;;;;8.87;6.80;;;20.50;99.90;;;;;;5011047;28;20196;-72
2021/06/28 02:03:17;;;;;;;9.53;7.50;;;20.60;99.90;;;;;;5022761;28;20298;-72
2021/06/28 02:05:58;;;;;;;8.17;7.33;;;20.60;99.90;;;;;;5018301;28;20454;-72
2021/06/28 02:08:26;;;;;;;9.80;7.80;;;20.60;99.90;;;;;;5013346;28;20441;-70
2021/06/28 02:10:57;;;;;;;7.57;6.87;;;20.60;99.90;;;;;;5020465;28;20427;-72
2021/06/28 02:13:29;;;;;;;8.40;7.17;;;20.60;99.90;;;;;;5000450;28;20458;-72
2021/06/28 02:15:55;;;;;;;9.30;7.90;;;20.60;99.90;;;;;;5017546;28;20588;-72
2021/06/28 02:18:23;;;;;;;9.47;7.67;;;20.60;99.90;;;;;;5009656;28;20511;-71
2021/06/28 02:20:50;;;;;;;10.00;8.17;;;20.60;99.90;;;;;;5014059;28;20440;-72
2021/06/28 02:23:21;;;;;;;9.37;8.07;;;20.50;99.90;;;;;;5006795;28;20475;-73
2021/06/28 02:25:56;;;;;;;9.77;8.60;;;20.50;99.90;;;;;;5020382;28;20482;-72
2021/06/28 02:28:23;;;;;;;7.93;7.13;;;20.40;99.90;;;;;;5016674;28;20881;-72
2021/06/28 02:30:49;;;;;;;8.57;7.50;;;20.30;99.90;;;;;;5010205;28;20438;-72
2021/06/28 02:33:14;;;;;;;9.13;8.20;;;20.30;99.90;;;;;;5010767;28;20447;-72
2021/06/28 02:35:40;;;;;;;9.00;8.10;;;20.30;99.90;;;;;;5021799;28;20672;-72
2021/06/28 02:38:06;;;;;;;9.47;8.57;;;20.30;99.90;;;;;;5010197;28;20954;-71
2021/06/28 02:40:31;;;;;;;13.50;11.27;;;20.20;99.90;;;;;;5015801;28;20741;-72
2021/06/28 02:42:57;;;;;;;8.83;7.93;;;20.20;99.90;;;;;;5021539;28;20766;-71
2021/06/28 02:45:23;;;;;;;9.57;8.67;;;20.20;99.90;;;;;;5018713;28;20176;-73
2021/06/28 02:47:48;;;;;;;9.57;8.10;;;20.20;99.90;;;;;;5011523;28;20673;-72
2021/06/28 02:50:15;;;;;;;14.90;9.70;;;20.30;99.90;;;;;;5009566;28;20186;-72
2021/06/28 02:52:44;;;;;;;12.00;9.43;;;20.30;99.90;;;;;;5010734;28;20764;-73
2021/06/28 02:55:10;;;;;;;10.17;9.10;;;20.20;99.90;;;;;;5019527;28;20516;-72
2021/06/28 02:57:37;;;;;;;10.77;9.63;;;20.30;99.90;;;;;;5015707;28;20488;-73
2021/06/28 03:00:11;;;;;;;10.67;9.03;;;20.20;99.90;;;;;;5005981;28;20436;-73
2021/06/28 03:02:37;;;;;;;9.83;8.87;;;20.20;99.90;;;;;;5018956;28;20462;-74
2021/06/28 03:05:07;;;;;;;10.87;9.70;;;20.10;99.90;;;;;;5034101;28;20453;-75
2021/06/28 03:07:34;;;;;;;10.37;9.30;;;20.00;99.90;;;;;;5009015;28;20251;-72
2021/06/28 03:10:00;;;;;;;11.83;9.30;;;20.00;99.90;;;;;;5010146;28;20521;-73
2021/06/28 03:12:26;;;;;;;10.17;8.20;;;19.90;99.90;;;;;;5014651;28;20772;-73
2021/06/28 03:14:51;;;;;;;10.13;9.23;;;19.80;99.90;;;;;;5011417;28;21019;-73
2021/06/28 03:17:17;;;;;;;9.73;8.83;;;19.70;99.90;;;;;;5013483;28;20270;-72
2021/06/28 03:19:42;;;;;;;10.80;9.70;;;19.70;99.90;;;;;;4998781;28;20196;-73
2021/06/28 03:22:08;;;;;;;11.13;9.17;;;19.60;99.90;;;;;;5006147;28;20208;-73
2021/06/28 03:24:34;;;;;;;12.70;9.40;;;19.60;99.90;;;;;;5006923;28;20608;-73
2021/06/28 03:26:59;;;;;;;11.80;9.37;;;19.70;99.90;;;;;;5011523;28;20265;-72
2021/06/28 03:29:26;;;;;;;11.10;8.87;;;19.70;99.90;;;;;;5002239;28;20187;-72
2021/06/28 03:31:51;;;;;;;11.60;8.57;;;19.70;99.90;;;;;;5018150;28;20278;-72
2021/06/28 03:34:17;;;;;;;10.30;8.47;;;19.70;99.90;;;;;;5008151;28;20545;-73
2021/06/28 03:36:42;;;;;;;9.63;8.73;;;19.70;99.90;;;;;;5013380;28;20249;-73
2021/06/28 03:39:09;;;;;;;10.57;8.83;;;19.70;99.90;;;;;;4997672;28;20183;-72
2021/06/28 03:41:34;;;;;;;9.80;8.83;;;19.70;99.90;;;;;;5014323;28;20202;-72
2021/06/28 03:44:00;;;;;;;9.43;8.47;;;19.70;99.90;;;;;;5001478;28;20447;-73
2021/06/28 03:46:26;;;;;;;10.13;9.13;;;19.70;99.90;;;;;;5015016;28;20240;-72
2021/06/28 03:48:52;;;;;;;9.20;8.37;;;19.70;99.90;;;;;;5011617;28;20434;-73
2021/06/28 03:51:18;;;;;;;9.20;8.30;;;19.70;99.90;;;;;;5015319;28;20505;-72
2021/06/28 03:53:43;;;;;;;11.00;8.00;;;19.70;99.90;;;;;;5017394;28;20215;-73
2021/06/28 03:56:09;;;;;;;14.20;10.17;;;19.80;99.90;;;;;;5017514;28;20600;-73
2021/06/28 03:58:37;;;;;;;18.63;12.20;;;19.70;99.90;;;;;;5012758;28;20191;-73
2021/06/28 04:01:03;;;;;;;12.87;10.47;;;19.80;99.90;;;;;;4999005;28;20335;-73
2021/06/28 04:03:31;;;;;;;14.80;13.13;;;19.80;99.90;;;;;;5027629;28;21053;-73
2021/06/28 04:06:00;;;;;;;16.60;14.07;;;19.80;99.90;;;;;;4999801;28;20206;-73
2021/06/28 04:08:25;;;;;;;15.73;14.10;;;19.80;99.90;;;;;;5013126;28;20505;-73
2021/06/28 04:10:52;;;;;;;14.43;12.13;;;19.80;99.90;;;;;;5010890;28;20971;-75
2021/06/28 04:13:18;;;;;;;12.20;10.77;;;19.80;99.90;;;;;;5002176;28;20219;-74
2021/06/28 04:15:44;;;;;;;11.90;10.17;;;19.80;99.90;;;;;;5021474;28;20792;-73
2021/06/28 04:18:10;;;;;;;12.90;11.30;;;19.80;99.90;;;;;;5011039;28;20190;-73
2021/06/28 04:20:35;;;;;;;13.10;10.57;;;19.80;99.90;;;;;;5020402;28;20230;-73
2021/06/28 04:23:01;;;;;;;11.50;10.30;;;19.80;99.90;;;;;;5005451;28;20262;-70
2021/06/28 04:25:26;;;;;;;14.50;10.40;;;19.80;99.90;;;;;;5019072;28;20188;-73
2021/06/28 04:27:52;;;;;;;11.43;9.63;;;19.90;99.90;;;;;;5008155;28;20185;-74
2021/06/28 04:30:19;;;;;;;16.17;10.77;;;19.90;99.90;;;;;;5005778;28;20696;-73
2021/06/28 04:32:46;;;;;;;10.13;9.10;;;20.00;99.90;;;;;;5006731;28;20292;-73
2021/06/28 04:35:14;;;;;;;11.53;8.87;;;20.10;99.90;;;;;;5020596;28;20429;-71
2021/06/28 04:37:40;;;;;;;13.30;9.80;;;20.10;99.90;;;;;;5009406;28;20450;-73
2021/06/28 04:40:09;;;;;;;13.13;8.90;;;20.20;99.90;;;;;;5005005;28;20430;-72
2021/06/28 04:42:35;;;;;;;12.30;8.90;;;20.30;99.90;;;;;;5014669;28;20836;-73
2021/06/28 04:45:00;;;;;;;9.73;7.83;;;20.40;99.90;;;;;;5009347;28;20431;-73
2021/06/28 04:47:26;;;;;;;11.83;7.83;;;20.50;99.90;;;;;;5024523;28;20441;-72
2021/06/28 04:49:52;;;;;;;13.13;8.70;;;20.60;99.90;;;;;;5017167;28;20237;-73
2021/06/28 04:52:17;;;;;;;13.40;9.10;;;20.70;99.90;;;;;;5016002;28;20190;-72
2021/06/28 04:54:43;;;;;;;9.60;7.63;;;20.70;99.90;;;;;;5020147;28;20218;-72
2021/06/28 04:57:09;;;;;;;11.90;8.27;;;20.80;99.90;;;;;;5017884;28;20190;-72
2021/06/28 04:59:34;;;;;;;7.57;6.73;;;20.90;99.90;;;;;;5022677;28;20429;-72
2021/06/28 05:02:00;;;;;;;8.43;7.20;;;20.90;99.90;;;;;;5013024;28;20642;-72
2021/06/28 05:04:26;;;;;;;8.83;7.40;;;21.10;99.90;;;;;;5020332;28;20286;-71
2021/06/28 05:06:52;;;;;;;8.50;7.00;;;21.20;99.90;;;;;;5016942;28;20207;-72
2021/06/28 05:09:17;;;;;;;8.63;7.73;;;21.20;99.90;;;;;;5012253;28;20465;-72
2021/06/28 05:11:43;;;;;;;10.70;7.40;;;21.30;99.90;;;;;;5017462;28;20184;-73
2021/06/28 05:14:08;;;;;;;11.83;8.37;;;21.40;99.90;;;;;;5012830;28;20207;-72
2021/06/28 05:16:34;;;;;;;10.70;7.70;;;21.40;99.90;;;;;;5007692;28;20175;-71
2021/06/28 05:19:00;;;;;;;11.30;8.33;;;21.40;99.90;;;;;;5021188;28;20191;-73
2021/06/28 05:21:25;;;;;;;10.20;8.43;;;21.40;99.90;;;;;;5009297;28;20502;-71
2021/06/28 05:23:51;;;;;;;11.17;8.47;;;21.50;99.90;;;;;;5000423;28;20208;-71
2021/06/28 05:26:17;;;;;;;9.10;7.50;;;21.50;99.90;;;;;;5019851;28;20269;-71
2021/06/28 05:28:42;;;;;;;8.57;7.67;;;21.50;99.90;;;;;;5022511;28;20266;-72
2021/06/28 05:31:08;;;;;;;8.30;7.50;;;21.50;99.90;;;;;;5000707;28;20196;-71
2021/06/28 05:33:33;;;;;;;8.53;7.73;;;21.60;99.90;;;;;;5020065;28;20207;-72
2021/06/28 05:35:59;;;;;;;13.20;8.20;;;21.60;99.90;;;;;;5023130;28;20652;-71
2021/06/28 05:38:25;;;;;;;9.90;8.07;;;21.60;99.90;;;;;;5005875;28;20646;-71
2021/06/28 05:40:50;;;;;;;9.10;8.00;;;21.80;99.90;;;;;;5013972;28;20430;-71
2021/06/28 05:43:16;;;;;;;9.40;8.20;;;21.90;99.90;;;;;;5012119;28;20712;-73
2021/06/28 05:45:42;;;;;;;10.10;9.10;;;22.00;99.90;;;;;;5007898;28;20545;-72
2021/06/28 05:48:07;;;;;;;10.90;9.47;;;22.20;99.90;;;;;;5013711;28;20251;-72
2021/06/28 05:50:33;;;;;;;10.67;9.57;;;22.20;99.90;;;;;;5011071;28;20249;-72
2021/06/28 05:52:59;;;;;;;9.10;8.10;;;22.20;99.90;;;;;;5013477;28;20306;-78
2021/06/28 05:55:25;;;;;;;9.60;8.60;;;22.50;99.90;;;;;;5024466;28;20690;-79
2021/06/28 05:57:51;;;;;;;10.43;8.20;;;22.50;99.90;;;;;;5010709;28;20449;-80
2021/06/28 06:00:19;;;;;;;10.53;9.53;;;22.70;99.90;;;;;;5013933;28;20184;-80
2021/06/28 06:02:45;;;;;;;11.03;9.37;;;22.70;99.90;;;;;;5022909;28;20619;-80
2021/06/28 06:05:11;;;;;;;9.93;8.93;;;22.70;99.90;;;;;;5020811;28;20441;-80
2021/06/28 06:07:38;;;;;;;8.93;8.03;;;22.70;99.90;;;;;;5005704;28;20679;-79
2021/06/28 06:10:11;;;;;;;12.57;9.60;;;22.80;99.90;;;;;;5015403;28;20447;-79
2021/06/28 06:12:36;;;;;;;9.40;8.00;;;22.90;99.90;;;;;;5021917;28;20439;-79
2021/06/28 06:15:04;;;;;;;10.23;8.77;;;22.90;99.90;;;;;;5014312;28;20432;-78
2021/06/28 06:17:30;;;;;;;8.83;7.67;;;22.90;99.90;;;;;;5015193;28;20271;-79
2021/06/28 06:19:55;;;;;;;11.03;8.47;;;22.80;99.90;;;;;;5026184;28;20465;-78
2021/06/28 06:22:21;;;;;;;12.13;10.27;;;22.80;99.90;;;;;;5013539;28;20673;-79
2021/06/28 06:24:46;;;;;;;9.17;8.20;;;22.90;99.90;;;;;;5023366;28;20194;-77
2021/06/28 06:27:12;;;;;;;9.23;8.17;;;22.80;99.90;;;;;;5012273;28;20677;-78
2021/06/28 06:29:37;;;;;;;9.83;8.80;;;23.00;99.90;;;;;;4997843;28;20188;-78
2021/06/28 06:32:04;;;;;;;11.97;9.30;;;23.00;99.90;;;;;;5001693;28;20653;-77
2021/06/28 06:34:29;;;;;;;12.53;9.30;;;22.90;99.90;;;;;;5018962;28;20580;-76
2021/06/28 06:36:55;;;;;;;10.20;8.40;;;22.90;99.90;;;;;;5003945;28;20435;-77
2021/06/28 06:39:20;;;;;;;12.50;9.30;;;22.90;99.90;;;;;;5015126;28;20696;-78
2021/06/28 06:41:46;;;;;;;12.50;9.70;;;22.80;99.90;;;;;;5020347;28;20270;-77
2021/06/28 06:44:12;;;;;;;9.60;8.23;;;22.90;99.90;;;;;;5009110;28;20245;-74
2021/06/28 06:46:38;;;;;;;10.97;9.47;;;23.00;99.90;;;;;;5007093;28;20800;-76
2021/06/28 06:49:04;;;;;;;18.50;16.50;;;23.10;99.90;;;;;;5011850;28;20647;-79
2021/06/28 06:51:30;;;;;;;11.67;9.67;;;23.10;99.90;;;;;;5020646;28;20430;-80
2021/06/28 06:53:56;;;;;;;8.27;7.47;;;23.10;99.90;;;;;;5022660;28;20561;-79
2021/06/28 06:56:22;;;;;;;7.60;6.90;;;23.10;99.90;;;;;;5006823;28;20426;-79
2021/06/28 06:58:48;;;;;;;8.90;8.10;;;23.10;99.90;;;;;;5023676;28;20184;-78
2021/06/28 07:01:16;;;;;;;9.10;8.20;;;23.00;99.90;;;;;;5015427;28;20184;-78
2021/06/28 07:03:41;;;;;;;8.93;8.13;;;23.00;99.90;;;;;;5022165;28;20298;-78
2021/06/28 07:06:07;;;;;;;11.70;9.40;;;23.00;99.90;;;;;;5010054;28;20526;-78
2021/06/28 07:08:35;;;;;;;8.30;7.50;;;23.00;99.90;;;;;;5024428;28;20196;-78
2021/06/28 07:11:01;;;;;;;8.73;7.83;;;23.00;99.90;;;;;;5020053;28;20202;-78
2021/06/28 07:13:27;;;;;;;7.20;6.50;;;23.10;99.90;;;;;;5022327;28;20467;-78
2021/06/28 07:15:53;;;;;;;8.77;7.80;;;23.00;99.90;;;;;;5022471;28;20415;-78
2021/06/28 07:18:18;;;;;;;8.03;7.23;;;23.20;99.90;;;;;;5022176;28;20194;-76
2021/06/28 07:20:44;;;;;;;7.97;7.17;;;23.20;99.90;;;;;;5024822;28;20193;-78
2021/06/28 07:23:09;;;;;;;9.73;7.77;;;23.20;99.90;;;;;;5014094;28;20235;-78
2021/06/28 07:25:35;;;;;;;8.60;7.60;;;23.40;99.90;;;;;;5008155;28;20558;-78
2021/06/28 07:28:01;;;;;;;6.73;6.10;;;23.40;99.90;;;;;;5019886;28;20196;-77
2021/06/28 07:30:27;;;;;;;8.10;6.93;;;23.40;99.90;;;;;;5020050;28;20200;-77
2021/06/28 07:32:53;;;;;;;6.90;6.20;;;23.40;99.90;;;;;;5008954;28;20239;-78
2021/06/28 07:35:19;;;;;;;8.80;7.23;;;23.60;99.90;;;;;;5024300;28;20434;-78
2021/06/28 07:37:44;;;;;;;9.23;6.37;;;23.70;99.90;;;;;;5025216;28;20429;-78
2021/06/28 07:40:13;;;;;;;7.47;6.47;;;23.70;99.90;;;;;;5032124;28;20435;-78
2021/06/28 07:42:39;;;;;;;9.40;7.90;;;23.70;99.90;;;;;;5018091;28;20607;-78
2021/06/28 07:45:06;;;;;;;9.20;6.67;;;23.90;99.90;;;;;;5026282;28;20430;-77
2021/06/28 07:47:33;;;;;;;6.27;5.77;;;24.00;99.90;;;;;;5032174;28;20553;-77
2021/06/28 07:49:58;;;;;;;22.00;11.00;;;24.10;99.90;;;;;;5019968;28;20437;-78
2021/06/28 07:52:26;;;;;;;8.77;7.43;;;24.30;99.90;;;;;;5021784;28;20421;-78
2021/06/28 07:54:52;;;;;;;6.57;5.90;;;24.50;99.90;;;;;;5023381;28;20170;-76
2021/06/28 07:57:17;;;;;;;7.13;6.33;;;24.50;99.90;;;;;;5038854;28;20596;-78
2021/06/28 07:59:44;;;;;;;7.97;7.17;;;24.50;99.90;;;;;;5026419;28;20495;-78
2021/06/28 08:02:10;;;;;;;9.13;6.97;;;24.50;99.90;;;;;;5013055;28;20212;-78
2021/06/28 08:04:36;;;;;;;8.27;6.87;;;24.70;99.90;;;;;;5026352;28;20451;-78
2021/06/28 08:07:02;;;;;;;6.97;6.10;;;24.70;99.90;;;;;;5028975;28;20206;-77
2021/06/28 08:09:27;;;;;;;9.40;7.40;;;24.50;99.90;;;;;;5025981;28;20245;-78
2021/06/28 08:11:57;;;;;;;6.87;5.80;;;24.70;99.90;;;;;;5016872;28;20475;-77
2021/06/28 08:14:22;;;;;;;6.13;5.53;;;24.80;99.90;;;;;;5011361;28;20226;-78
2021/06/28 08:16:49;;;;;;;9.40;6.20;;;24.90;99.90;;;;;;5004489;28;20435;-78
2021/06/28 08:19:15;;;;;;;9.60;7.10;;;25.10;99.90;;;;;;5010933;28;20195;-78
2021/06/28 08:21:41;;;;;;;11.70;7.10;;;25.30;99.90;;;;;;5022538;28;20452;-78
2021/06/28 08:24:08;;;;;;;13.17;7.80;;;25.30;99.90;;;;;;5015487;28;20203;-76
2021/06/28 08:26:35;;;;;;;8.27;6.00;;;25.40;99.90;;;;;;5024328;28;20184;-77
2021/06/28 08:29:03;;;;;;;11.03;5.73;;;25.40;99.90;;;;;;5015110;28;20564;-77
2021/06/28 08:31:29;;;;;;;7.93;5.87;;;25.60;99.90;;;;;;5028079;28;20433;-78
2021/06/28 08:33:55;;;;;;;8.37;5.83;;;25.60;99.90;;;;;;5030904;28;20503;-78
2021/06/28 08:36:20;;;;;;;9.77;6.43;;;25.60;99.90;;;;;;5023037;28;20464;-78
2021/06/28 08:38:46;;;;;;;11.47;7.53;;;25.70;99.90;;;;;;5010188;28;20189;-78
2021/06/28 08:41:16;;;;;;;16.40;8.57;;;25.80;99.90;;;;;;5033891;28;20187;-76
2021/06/28 08:43:46;;;;;;;6.80;5.57;;;25.90;99.90;;;;;;5032553;28;20250;-77
2021/06/28 08:46:16;;;;;;;8.43;6.17;;;26.10;99.90;;;;;;5029169;28;20449;-77
2021/06/28 08:48:43;;;;;;;8.03;6.57;;;26.20;99.90;;;;;;5028162;28;20422;-78
2021/06/28 08:51:10;;;;;;;10.10;7.10;;;26.30;99.90;;;;;;5011546;28;20435;-78
2021/06/28 08:53:35;;;;;;;6.23;5.63;;;26.20;99.90;;;;;;5021915;28;20840;-78
2021/06/28 08:56:07;;;;;;;7.53;6.23;;;26.10;99.90;;;;;;5021372;28;20442;-79
2021/06/28 08:58:37;;;;;;;9.90;7.70;;;26.10;99.90;;;;;;5025858;28;20664;-78
2021/06/28 09:01:04;;;;;;;8.03;6.33;;;26.20;99.90;;;;;;5028557;28;21021;-78
2021/06/28 09:03:30;;;;;;;6.10;5.47;;;26.20;99.90;;;;;;5030189;28;20479;-79
2021/06/28 09:06:06;;;;;;;7.23;6.53;;;26.20;99.90;;;;;;5020124;28;20415;-77
2021/06/28 09:08:34;;;;;;;24.17;13.93;;;26.20;99.90;;;;;;5003934;28;20189;-79
2021/06/28 09:11:00;;;;;;;8.67;6.77;;;26.20;99.90;;;;;;5022664;28;20455;-78
2021/06/28 09:13:44;;;;;;;6.60;5.60;;;26.20;99.90;;;;;;5007557;28;20808;-77
2021/06/28 09:16:29;;;;;;;10.30;7.13;;;26.10;99.90;;;;;;5022813;28;20618;-78
2021/06/28 09:18:56;;;;;;;9.80;6.20;;;26.10;99.90;;;;;;5014281;28;20507;-77
2021/06/28 09:21:28;;;;;;;7.17;5.80;;;26.00;99.90;;;;;;5026898;28;20418;-78
2021/06/28 09:23:55;;;;;;;7.40;5.73;;;25.90;99.90;;;;;;5007488;28;20936;-77
2021/06/28 09:26:26;;;;;;;9.87;6.10;;;25.90;99.90;;;;;;5027486;28;20437;-79
2021/06/28 09:28:53;;;;;;;8.83;6.70;;;25.80;99.90;;;;;;5020885;28;20436;-79
2021/06/28 09:31:43;;;;;;;11.40;7.03;;;25.80;99.90;;;;;;5020968;28;20432;-80
2021/06/28 09:34:21;;;;;;;8.40;6.70;;;25.90;99.90;;;;;;5023220;28;20855;-79
2021/06/28 09:36:47;;;;;;;12.00;6.57;;;25.90;99.90;;;;;;5026981;28;20851;-79
2021/06/28 09:39:20;;;;;;;14.20;8.00;;;25.90;99.90;;;;;;5028046;28;20427;-79
2021/06/28 09:41:46;;;;;;;11.37;7.17;;;25.80;99.90;;;;;;5029741;28;20195;-77
2021/06/28 09:44:12;;;;;;;14.53;8.23;;;25.70;99.90;;;;;;5025559;28;20840;-78
2021/06/28 09:46:39;;;;;;;6.67;5.13;;;25.70;99.90;;;;;;5034066;28;20438;-80
2021/06/28 09:49:06;;;;;;;6.00;5.40;;;25.70;99.90;;;;;;5026127;28;20179;-78
2021/06/28 09:51:35;;;;;;;6.80;6.10;;;25.80;99.90;;;;;;5034005;28;20423;-77
2021/06/28 09:54:21;;;;;;;5.53;5.03;;;25.70;99.90;;;;;;5046614;28;20443;-78
2021/06/28 09:56:50;;;;;;;5.97;5.47;;;25.60;99.90;;;;;;5039294;28;20440;-79
2021/06/28 09:59:44;;;;;;;5.70;5.20;;;25.70;99.90;;;;;;5042391;28;20412;-76
2021/06/28 10:02:12;;;;;;;7.60;6.30;;;25.80;99.90;;;;;;5034730;28;20473;-77
2021/06/28 10:07:34;;;;;;;7.07;6.30;;;26.00;99.90;;;;;;5023901;28;20422;-78
2021/06/28 10:10:08;;;;;;;5.83;5.27;;;26.00;99.90;;;;;;5022514;28;20629;-78
2021/06/28 10:12:35;;;;;;;6.73;6.03;;;26.00;99.90;;;;;;5004672;28;20437;-78
2021/06/28 10:15:01;;;;;;;6.10;5.50;;;26.10;99.90;;;;;;5023619;28;20954;-79
2021/06/28 10:17:28;;;;;;;5.90;5.20;;;26.20;99.90;;;;;;5018634;28;20458;-77
2021/06/28 10:19:54;;;;;;;9.20;6.37;;;26.30;99.90;;;;;;5014749;28;20194;-77
2021/06/28 10:22:20;;;;;;;8.67;6.20;;;26.40;99.90;;;;;;5007128;28;20521;-77
2021/06/28 10:24:46;;;;;;;5.70;5.20;;;26.50;99.90;;;;;;5028012;28;20262;-78
2021/06/28 10:27:11;;;;;;;8.27;5.50;;;26.30;99.90;;;;;;5009713;28;20506;-78
2021/06/28 10:29:37;;;;;;;9.80;6.47;;;26.30;99.90;;;;;;5016125;28;20219;-78
2021/06/28 10:32:08;;;;;;;9.17;5.73;;;26.30;99.90;;;;;;5015574;28;20184;-78
2021/06/28 10:34:34;;;;;;;8.20;6.37;;;26.30;99.90;;;;;;5021329;28;20294;-78
2021/06/28 10:37:03;;;;;;;9.50;6.60;;;26.30;99.90;;;;;;5011975;28;20862;-77
2021/06/28 10:39:31;;;;;;;7.70;6.20;;;26.40;99.90;;;;;;5008941;28;20523;-78
2021/06/28 10:41:59;;;;;;;7.70;5.60;;;26.60;99.90;;;;;;5046041;28;20433;-77
2021/06/28 10:44:45;;;;;;;5.40;4.90;;;26.70;99.90;;;;;;5038415;28;20464;-77
2021/06/28 10:47:11;;;;;;;6.87;5.33;;;26.80;99.90;;;;;;5037162;28;20418;-79
2021/06/28 10:49:44;;;;;;;10.17;6.17;;;27.00;99.90;;;;;;5032906;28;21018;-79
2021/06/28 10:52:09;;;;;;;8.20;5.63;;;27.00;99.90;;;;;;5027204;28;20175;-79
2021/06/28 10:54:37;;;;;;;7.50;5.00;;;27.20;99.90;;;;;;5028443;28;20443;-78
2021/06/28 10:57:04;;;;;;;6.07;5.00;;;27.40;99.90;;;;;;5039932;28;20171;-78
2021/06/28 10:59:44;;;;;;;7.17;5.47;;;27.50;99.90;;;;;;5017459;28;20445;-78
2021/06/28 11:02:12;;;;;;;10.53;6.57;;;27.50;99.90;;;;;;5023661;28;20459;-80
2021/06/28 11:04:40;;;;;;;19.17;8.80;;;27.60;99.90;;;;;;5023908;28;20453;-78
2021/06/28 11:07:07;;;;;;;11.70;7.00;;;27.70;99.90;;;;;;5028261;28;20837;-79
2021/06/28 11:09:48;;;;;;;10.30;6.87;;;27.70;99.90;;;;;;5029992;28;20948;-77
2021/06/28 11:12:23;;;;;;;10.83;6.50;;;27.80;99.90;;;;;;5021120;28;20445;-77
2021/06/28 11:15:07;;;;;;;7.90;5.50;;;27.70;99.90;;;;;;5011273;28;20485;-78
2021/06/28 11:17:47;;;;;;;10.97;6.67;;;27.70;99.90;;;;;;5018140;28;21011;-78
2021/06/28 11:20:35;;;;;;;9.00;5.60;;;27.80;99.90;;;;;;5019854;28;20437;-78
2021/06/28 11:23:08;;;;;;;8.77;5.80;;;27.90;99.90;;;;;;5012540;28;20473;-80
2021/06/28 11:25:46;;;;;;;9.93;5.90;;;28.00;99.90;;;;;;5022963;28;20434;-79
2021/06/28 11:28:13;;;;;;;12.47;6.73;;;28.10;99.90;;;;;;5019218;28;20458;-79
2021/06/28 11:31:03;;;;;;;11.33;6.67;;;28.40;99.90;;;;;;5030957;28;20854;-79
2021/06/28 11:33:45;;;;;;;12.03;6.90;;;28.60;99.90;;;;;;5009204;28;20455;-78
2021/06/28 11:36:23;;;;;;;9.03;6.37;;;28.80;99.90;;;;;;5010359;28;20962;-79
2021/06/28 11:38:53;;;;;;;11.83;7.33;;;29.00;99.90;;;;;;5020924;28;20423;-79
2021/06/28 11:41:20;;;;;;;9.20;5.53;;;29.10;99.90;;;;;;5035676;28;20437;-79
2021/06/28 11:43:52;;;;;;;10.37;6.43;;;29.00;99.90;;;;;;5028035;28;20475;-79
2021/06/28 11:46:29;;;;;;;12.30;7.40;;;29.20;99.90;;;;;;5033888;28;20485;-79
2021/06/28 11:49:02;;;;;;;11.93;6.47;;;29.40;99.90;;;;;;5029506;28;20902;-79
2021/06/28 11:51:27;;;;;;;11.70;6.67;;;29.70;99.90;;;;;;5014304;28;20543;-79
2021/06/28 11:53:59;;;;;;;13.23;7.07;;;29.70;99.90;;;;;;5029110;28;20831;-79
2021/06/28 11:56:33;;;;;;;10.97;7.03;;;29.80;99.90;;;;;;5026889;28;20185;-80
2021/06/28 11:59:09;;;;;;;13.70;6.77;;;29.90;99.90;;;;;;5023788;28;20433;-79
2021/06/28 12:01:41;;;;;;;9.20;6.73;;;30.00;99.90;;;;;;5019342;28;20898;-78
2021/06/28 12:04:13;;;;;;;8.53;6.20;;;30.00;99.90;;;;;;5024545;28;20486;-79
2021/06/28 12:06:39;;;;;;;12.03;7.00;;;30.10;99.90;;;;;;5032220;28;20451;-80
2021/06/28 12:09:20;;;;;;;10.27;6.70;;;30.10;99.90;;;;;;5014054;28;20438;-79
2021/06/28 12:11:51;;;;;;;10.53;6.60;;;29.90;99.90;;;;;;5013286;28;20494;-78
2021/06/28 12:14:43;;;;;;;8.33;5.80;;;30.10;99.90;;;;;;5012004;28;20554;-79
2021/06/28 12:17:15;;;;;;;11.87;6.50;;;30.50;99.90;;;;;;5030341;28;20414;-79
2021/06/28 12:19:43;;;;;;;13.67;8.20;;;31.00;99.90;;;;;;5028258;28;20449;-76
2021/06/28 12:22:14;;;;;;;10.60;6.30;;;31.30;99.90;;;;;;5016432;28;20474;-79
2021/06/28 12:24:41;;;;;;;9.23;6.03;;;31.30;99.90;;;;;;5015326;28;20494;-79
2021/06/28 12:27:13;;;;;;;10.30;5.87;;;31.10;99.90;;;;;;5021364;28;20437;-79
2021/06/28 12:29:41;;;;;;;11.50;6.50;;;31.20;99.90;;;;;;5004463;28;20427;-79
2021/06/28 12:32:14;;;;;;;10.10;6.23;;;31.60;99.90;;;;;;5030010;28;20936;-79
2021/06/28 12:34:44;;;;;;;8.03;5.47;;;32.20;99.90;;;;;;5024931;28;20450;-79
2021/06/28 12:37:10;;;;;;;15.13;7.50;;;32.70;99.90;;;;;;5026078;28;20410;-79
2021/06/28 12:39:35;;;;;;;10.07;6.13;;;32.80;99.90;;;;;;5023707;28;20425;-80
2021/06/28 12:42:13;;;;;;;7.90;6.10;;;32.90;99.90;;;;;;5026357;28;20195;-80
2021/06/28 12:44:40;;;;;;;9.03;6.10;;;33.00;99.90;;;;;;5025295;28;20293;-79
2021/06/28 12:47:06;;;;;;;7.73;5.67;;;33.10;99.90;;;;;;5042777;28;20578;-80
2021/06/28 12:49:34;;;;;;;12.80;7.00;;;33.40;99.90;;;;;;5043501;28;20452;-80